Hastain, Missouri
Current Conditions -  °F | °C
As of 12:15 PM on Friday 31 Oct 2014 (Local Time) from KH21 Reporting Station
Clear Clear  
Wind Chill: 35°   Ceiling: Unl
Heat Index: 43°   Visibility: 10mi
Dew Point: 23°   Wind: 17mph
Humidity: 46%   Direction: 320°NW
Pressure: 30.38"   Gusts: 25mph
Location:  38.1656°N, 93.1481°W
Report Text: KH21 311715Z AUTO 32015G22KT 10SM CLR 06/M05 A3038 RMK AO2
Loading
Personal Weather Stations






























Interactive Weather Map New forecast layout! Learn more

10-Day Weather Forecast

Advertisements
Track Severe Weather on mobile